Capitol Logistics 7439

Operating for MZN



KRIC
Richmond International Airport
Richmond, Virginia
KTPA
Tampa International Airport
Tampa, Florida

Activity Log

Date Flight Route Aircraft Duration
No Flights Yet

Route Details

Aircraft Information
Primary: Boeing 737-800BCF
Backup: Boeing 757-200SF
Route Data
Distance: 619nm
Duration: 1h 54m
Recm'd Route: KALLI6 KALLI DRAIK GSO Q75 SLOJO Q103 CYNTA JAYJA DADES6
Origin Wx: KRIC 180254Z 10004KT 10SM OVC085 13/06 A2987 RMK AO2 SLP119 T01280061 51020
Dest. Wx: KTPA 180316Z 23006KT 7SM SCT010 SCT017 OVC030 25/22 A2991 RMK AO2 T02500222
Notes: